KTVR

Details ICAO KTVR
Name VICKSBURG TALLULAH RGNL
Region United States
Timezone America/Chicago (UTC-5.0)
Plans Departing 0
Arriving 1
Stats Elevation 86 ft / 26 m (AMSL)
Location 32.351607° -91.027689°
Runways 1
Magnetic Variation 0.454° W
Sunrise 2018-05-22 11:03:19 UTC / 2018-05-22 06:03:19 Local
Sunset 2018-05-23 01:01:07 UTC / 2018-05-22 20:01:07 Local
Advertisement - Login to hide

Runways

ID Width Length Bearing (true) Bearing (mag) Surface Threshold Offset Overrun Length
18 100 ft / 30 m 5,017 ft / 1,529 m 179.14° 179.59° Asphalt 0 ft / 0 m 0 ft / 0 m
36 100 ft / 30 m 5,017 ft / 1,529 m 359.14° 359.59° Asphalt 0 ft / 0 m 0 ft / 0 m

Approach Navaids

Runway Type Ident Frequency Range Bearing (true) Bearing (mag) Slope Elevation
36 Localiser ITVR 109.70 MHz 18 nm / 33 km 359.14° 359.60° - 86 ft / 26 m (AMSL)

Map

Weather


0- 5 10 15 20 25 30 35+ Temperature / ° C

Clouds and Precipitation
Forecast for 2018-05-22 18:00 UTC. Updated 2 hours ago

Ground ~20,000 ft ~40,000 ft Winds

METAR

KTVR 221916Z AUTO 03007KT 10SM VCTS CLR 32/21 A2998 RMK AO2 LTG DSNT W AND NW T03220211

TAF

Not found

Frequencies

Recorded 118.52 MHz ASOS
Unicom 123.00 MHz CTAF/UNICOM
Warning: Do not use this data for real-world aviation or navigation. No guarantee of current accuracy is given.